createdAt,value
2018-09-04T00:04:37.984Z,5.47
2018-09-04T00:09:41.099Z,5.70
2018-09-04T00:14:44.245Z,5.30
2018-09-04T00:19:47.359Z,4.40
2018-09-04T00:24:50.468Z,5.23
2018-09-04T00:29:53.572Z,4.87
2018-09-04T00:34:56.693Z,5.13
2018-09-04T00:39:59.794Z,5.50
2018-09-04T00:45:02.906Z,5.23
2018-09-04T00:50:06.325Z,5.47
2018-09-04T00:55:09.436Z,4.57
2018-09-04T01:00:12.552Z,5.30
2018-09-04T01:05:15.657Z,5.77
2018-09-04T01:10:18.779Z,5.87
2018-09-04T01:15:21.893Z,4.20
2018-09-04T01:20:25.001Z,4.60
2018-09-04T01:25:28.116Z,6.10
2018-09-04T01:30:31.224Z,5.47
2018-09-04T01:35:34.324Z,5.80
2018-09-04T01:40:37.440Z,5.60
2018-09-04T01:45:40.544Z,6.40
2018-09-04T01:50:44.158Z,5.90
2018-09-04T01:55:47.272Z,8.40
2018-09-04T02:00:50.388Z,7.50
2018-09-04T02:05:53.506Z,7.20
2018-09-04T02:10:56.625Z,6.57
2018-09-04T02:15:59.736Z,6.43
2018-09-04T02:21:02.868Z,6.80
2018-09-04T02:26:06.412Z,7.23
2018-09-04T02:31:09.532Z,7.73
2018-09-04T02:36:12.644Z,5.47
2018-09-04T02:41:15.751Z,6.95
2018-09-04T02:46:18.864Z,6.70
2018-09-04T02:51:21.968Z,5.73
2018-09-04T02:56:25.093Z,6.87
2018-09-04T03:01:28.464Z,7.33
2018-09-04T03:06:31.588Z,7.63
2018-09-04T03:11:34.751Z,6.47
2018-09-04T03:16:37.852Z,7.17
2018-09-04T03:21:40.964Z,7.60
2018-09-04T03:26:44.068Z,7.00
2018-09-04T03:31:47.164Z,7.27
2018-09-04T03:36:50.272Z,9.10
2018-09-04T03:41:53.396Z,7.27
2018-09-04T03:46:56.516Z,6.70
2018-09-04T03:51:59.646Z,6.77
2018-09-04T03:57:02.756Z,9.00
2018-09-04T04:02:06.004Z,9.33
2018-09-04T04:07:09.117Z,6.93
2018-09-04T04:12:12.230Z,7.15
2018-09-04T04:17:15.352Z,8.30
2018-09-04T04:22:18.464Z,6.47
2018-09-04T04:27:21.581Z,7.95
2018-09-04T04:32:25.436Z,7.40
2018-09-04T04:37:28.540Z,6.47
2018-09-04T04:42:31.653Z,7.63
2018-09-04T04:47:40.221Z,7.67
2018-09-04T04:52:43.312Z,6.60
2018-09-04T04:57:46.416Z,6.37
2018-09-04T05:02:49.533Z,7.83
2018-09-04T05:07:52.682Z,7.00
2018-09-04T05:12:55.806Z,7.40
2018-09-04T05:17:59.019Z,6.78
2018-09-04T05:23:02.146Z,7.07
2018-09-04T05:28:05.964Z,7.97
2018-09-04T05:33:18.004Z,7.50
2018-09-04T05:38:21.157Z,6.90
2018-09-04T05:43:28.656Z,7.37
2018-09-04T05:48:31.760Z,8.87
2018-09-04T05:53:34.864Z,8.97
2018-09-04T05:58:37.980Z,9.70
2018-09-04T06:03:41.093Z,10.87
2018-09-04T06:08:44.208Z,11.80
2018-09-04T06:13:47.427Z,11.80
2018-09-04T06:18:50.484Z,11.30
2018-09-04T06:23:53.596Z,11.20
2018-09-04T06:28:56.713Z,13.03
2018-09-04T06:33:59.907Z,12.43
2018-09-04T06:39:03.216Z,12.90
2018-09-04T06:44:06.332Z,12.93
2018-09-04T06:49:09.443Z,13.23
2018-09-04T06:54:12.617Z,14.35
2018-09-04T06:59:15.731Z,14.80
2018-09-04T07:04:18.850Z,13.15
2018-09-04T07:09:21.968Z,13.50
2018-09-04T07:14:25.083Z,14.70
2018-09-04T07:19:28.201Z,15.87
2018-09-04T07:24:31.304Z,16.47
2018-09-04T07:29:34.420Z,15.40
2018-09-04T07:34:37.536Z,15.57
2018-09-04T07:39:40.645Z,17.27
2018-09-04T07:44:43.753Z,15.70
2018-09-04T07:49:46.864Z,14.13
2018-09-04T07:54:50.002Z,15.20
2018-09-04T07:59:53.133Z,16.48
2018-09-04T08:04:56.245Z,16.77
2018-09-04T08:09:59.433Z,15.80
2018-09-04T08:15:02.476Z,16.50
2018-09-04T08:20:05.896Z,15.67
2018-09-04T08:25:09.020Z,17.50
2018-09-04T08:30:12.136Z,16.37
2018-09-04T08:35:15.248Z,16.43
2018-09-04T08:40:18.365Z,16.50
2018-09-04T08:45:21.504Z,17.50
2018-09-04T08:50:24.652Z,15.90
2018-09-04T08:55:27.733Z,17.07
2018-09-04T09:00:30.853Z,15.60
2018-09-04T09:05:34.073Z,18.30
2018-09-04T09:10:37.084Z,15.53
2018-09-04T09:15:40.197Z,16.83
2018-09-04T09:20:43.313Z,17.20
2018-09-04T09:25:46.428Z,16.97
2018-09-04T09:30:49.540Z,16.83
2018-09-04T09:35:52.656Z,15.90
2018-09-04T09:40:55.767Z,18.77
2018-09-04T09:45:58.884Z,15.40
2018-09-04T09:51:02.001Z,15.43
2018-09-04T09:56:06.204Z,15.70
2018-09-04T10:01:14.452Z,17.20
2018-09-04T10:06:18.584Z,15.80
2018-09-04T10:11:21.704Z,15.90
2018-09-04T10:16:24.830Z,14.33
2018-09-04T10:21:28.030Z,14.80
2018-09-04T10:26:31.206Z,13.80
2018-09-04T10:31:34.189Z,12.90
2018-09-04T10:36:37.301Z,14.70
2018-09-04T10:41:40.420Z,15.10
2018-09-04T10:46:43.528Z,15.33
2018-09-04T10:51:46.645Z,14.10
2018-09-04T10:56:49.766Z,15.33
2018-09-04T11:01:52.876Z,14.70
2018-09-04T11:06:55.994Z,16.63
2018-09-04T11:11:59.124Z,15.15
2018-09-04T11:17:02.274Z,16.93
2018-09-04T11:22:06.132Z,14.37
2018-09-04T11:27:09.247Z,14.20
2018-09-04T11:32:12.373Z,13.90
2018-09-04T11:37:15.488Z,16.40
2018-09-04T11:42:18.606Z,15.08
2018-09-04T11:47:21.716Z,14.07
2018-09-04T11:52:24.913Z,16.27
2018-09-04T11:57:27.976Z,13.73
2018-09-04T12:02:35.636Z,13.77
2018-09-04T12:07:38.818Z,13.87
2018-09-04T12:12:42.153Z,13.60
2018-09-04T12:17:45.055Z,12.77
2018-09-04T12:22:48.164Z,13.40
2018-09-04T12:27:51.272Z,12.80
2018-09-04T12:32:54.384Z,11.67
2018-09-04T12:37:57.616Z,12.90
2018-09-04T12:43:01.625Z,13.17
2018-09-04T12:48:04.814Z,12.87
2018-09-04T12:53:08.092Z,11.30
2018-09-04T12:58:11.297Z,11.57
2018-09-04T13:03:15.873Z,11.00
2018-09-04T13:08:20.080Z,9.73
2018-09-04T13:13:23.204Z,10.48
2018-09-04T13:18:27.128Z,12.63
2018-09-04T13:23:30.968Z,11.90
2018-09-04T13:28:34.407Z,10.73
2018-09-04T13:33:37.522Z,10.87
2018-09-04T13:38:40.636Z,12.93
2018-09-04T13:43:43.760Z,13.20
2018-09-04T13:48:46.883Z,11.57
2018-09-04T13:53:50.008Z,12.50
2018-09-04T13:58:53.116Z,11.90
2018-09-04T14:03:56.224Z,12.67
2018-09-04T14:08:59.340Z,13.47
2018-09-04T14:14:02.522Z,12.83
2018-09-04T14:19:42.383Z,11.30
2018-09-04T14:24:45.644Z,11.90
2018-09-04T14:30:15.540Z,11.33
2018-09-04T14:34:51.868Z,13.60
2018-09-04T14:39:55.588Z,11.10
2018-09-04T14:44:58.250Z,9.47
2018-09-04T14:50:01.320Z,10.80
2018-09-04T14:55:04.564Z,10.00
2018-09-04T15:00:07.732Z,11.73
2018-09-04T15:05:10.850Z,11.80
2018-09-04T15:10:13.968Z,10.10
2018-09-04T15:15:17.207Z,10.23
2018-09-04T15:20:20.336Z,10.30
2018-09-04T15:25:23.502Z,10.90
2018-09-04T15:30:26.581Z,10.33
2018-09-04T15:35:29.764Z,11.00
2018-09-04T15:40:32.876Z,10.90
2018-09-04T15:45:36.348Z,10.30
2018-09-04T15:50:39.459Z,11.67
2018-09-04T15:55:42.577Z,11.97
2018-09-04T16:00:45.704Z,10.70
2018-09-04T16:05:48.812Z,11.12
2018-09-04T16:10:51.931Z,9.37
2018-09-04T16:15:55.044Z,10.40
2018-09-04T16:20:58.156Z,11.40
2018-09-04T16:26:01.264Z,10.57
2018-09-04T16:31:04.437Z,10.77
2018-09-04T16:36:07.773Z,10.67
2018-09-04T16:41:11.082Z,10.90
2018-09-04T16:46:14.180Z,9.90
2018-09-04T16:51:17.287Z,9.58
2018-09-04T16:56:20.409Z,9.90
2018-09-04T17:01:23.537Z,11.68
2018-09-04T17:06:26.651Z,9.50
2018-09-04T17:11:29.780Z,10.50
2018-09-04T17:16:33.296Z,9.73
2018-09-04T17:21:36.417Z,9.10
2018-09-04T17:26:39.575Z,10.50
2018-09-04T17:31:42.668Z,11.40
2018-09-04T17:36:45.784Z,10.23
2018-09-04T17:41:48.909Z,9.20
2018-09-04T17:46:52.028Z,11.30
2018-09-04T17:51:55.156Z,11.43
2018-09-04T17:56:58.280Z,11.37
2018-09-04T18:02:01.432Z,11.00
2018-09-04T18:07:04.563Z,11.10
2018-09-04T18:12:07.728Z,12.30
2018-09-04T18:17:10.821Z,12.40
2018-09-04T18:22:13.964Z,12.30
2018-09-04T18:27:17.107Z,10.78
2018-09-04T18:32:20.283Z,11.60
2018-09-04T18:37:23.401Z,12.40
2018-09-04T18:42:26.513Z,12.13
2018-09-04T18:47:29.624Z,12.70
2018-09-04T18:52:32.740Z,11.50
2018-09-04T18:57:35.851Z,11.37
2018-09-04T19:02:38.977Z,12.70
2018-09-04T19:07:42.093Z,12.30
2018-09-04T19:12:45.224Z,12.00
2018-09-04T19:17:48.343Z,12.10
2018-09-04T19:22:51.480Z,12.70
2018-09-04T19:27:54.599Z,12.67
2018-09-04T19:32:57.712Z,11.60
2018-09-04T19:38:00.838Z,14.23
2018-09-04T19:43:03.949Z,14.33
2018-09-04T19:48:07.073Z,12.77
2018-09-04T19:53:10.207Z,13.17
2018-09-04T19:58:13.328Z,13.10
2018-09-04T20:03:16.448Z,13.43
2018-09-04T20:08:19.572Z,11.90
2018-09-04T20:13:22.741Z,12.90
2018-09-04T20:18:25.823Z,11.50
2018-09-04T20:23:28.958Z,11.23
2018-09-04T20:28:32.080Z,12.30
2018-09-04T20:33:35.404Z,11.73
2018-09-04T20:38:38.537Z,11.47
2018-09-04T20:43:41.664Z,13.70
2018-09-04T20:48:44.784Z,12.07
2018-09-04T20:53:47.909Z,12.90
2018-09-04T20:59:02.293Z,14.20
2018-09-04T21:04:17.271Z,11.87
2018-09-04T21:09:33.956Z,13.10
2018-09-04T21:14:37.068Z,13.97
2018-09-04T21:19:40.196Z,11.67
2018-09-04T21:24:43.320Z,12.50
2018-09-04T21:29:46.432Z,11.13
2018-09-04T21:34:49.553Z,13.10
2018-09-04T21:39:52.668Z,12.67
2018-09-04T21:44:55.793Z,13.57
2018-09-04T21:49:58.903Z,13.10
2018-09-04T21:55:02.024Z,13.40
2018-09-04T22:00:06.389Z,12.73
2018-09-04T22:05:09.509Z,13.13
2018-09-04T22:10:12.643Z,12.73
2018-09-04T22:15:15.760Z,12.50
2018-09-04T22:20:18.868Z,13.30
2018-09-04T22:25:22.008Z,13.00
2018-09-04T22:30:25.651Z,13.23
2018-09-04T22:35:28.769Z,12.97
2018-09-04T22:40:31.893Z,13.30
2018-09-04T22:45:35.014Z,12.07
2018-09-04T22:50:43.431Z,13.40
2018-09-04T22:55:46.648Z,12.57
2018-09-04T23:00:49.768Z,12.83
2018-09-04T23:05:55.009Z,13.00
2018-09-04T23:10:58.136Z,14.47
2018-09-04T23:16:01.260Z,12.17
2018-09-04T23:21:04.388Z,13.37
2018-09-04T23:26:07.510Z,13.30
2018-09-04T23:31:10.632Z,12.85
2018-09-04T23:36:13.752Z,13.20
2018-09-04T23:41:16.868Z,12.97
2018-09-04T23:46:19.984Z,14.50
2018-09-04T23:51:23.101Z,13.60
2018-09-04T23:56:26.216Z,15.13
